Samadhi — ZCOY9 — position and weather

sailwx.info

Track history (hours):
 
Tides and Currents Weather Stations Pressure Air Temp Water Temp Dewpoint Dewpoint Depression Visibility Wind Speed Wind Dir Waves Ship Positions

Samadhi

Last reported at 2014-Aug-31 10:17 UTC. Time now 2014-Sep-01 18:50 UTC.
Position N 37°26' W 000°45'.

Length 61 m; draft 3.3 m.

Type: Pleasure craft. MMSI: 319420000.

Date/timePositionNaut miles runAvg speedWind from/ knotsBaromVisibWave heightAir tempDewpointWater temp
2014-Aug-31 10:17N 37°26' W 000°45'1113.5
2014-Aug-31 09:30N 37°33' W 000°35'1313.3
2014-Aug-31 08:33N 37°44' W 000°25'14212.9
2014-Aug-30 21:32N 39°32' E 001°31'1313.1
2014-Aug-30 20:33N 39°41' E 001°44'1313.0
2014-Aug-30 19:33N 39°50' E 001°56'1312.7
2014-Aug-30 18:33N 39°58' E 002°09'1312.6
2014-Aug-30 17:33N 40°06' E 002°21'1312.9
2014-Aug-30 16:33N 40°15' E 002°33'3013.1
2014-Aug-30 14:14N 40°36' E 003°02'1313.6
2014-Aug-30 13:19N 40°43' E 003°16'911.2
2014-Aug-30 12:32N 40°49' E 003°24'1613.2
2014-Aug-30 11:19N 40°60' E 003°40'1412.7
2014-Aug-30 10:12N 41°09' E 003°54'912.6
2014-Aug-30 09:27N 41°16' E 004°03'1312.9
2014-Aug-30 08:28N 41°24' E 004°16'1312.0
2014-Aug-30 07:22N 41°33' E 004°29'1112.7
2014-Aug-30 06:29N 41°40' E 004°40'1412.9
2014-Aug-30 05:25N 41°50' E 004°54'4212.8
2014-Aug-30 02:07N 42°18' E 005°36'1112.7
2014-Aug-30 01:14N 42°25' E 005°48'912.5
2014-Aug-30 00:33N 42°31' E 005°57'1413.1
2014-Aug-29 23:27N 42°40' E 006°11'1213.6
2014-Aug-29 22:33N 42°48' E 006°24'1413.5
2014-Aug-29 21:31N 42°58' E 006°38'2713.6
2014-Aug-29 19:33N 43°16' E 007°05'1313.4
2014-Aug-29 18:33N 43°25' E 007°19'2713.3
2014-Aug-29 16:33N 43°42' E 007°47'1513.2
2014-Aug-29 15:24N 43°52' E 008°02'1 0.0
2014-Aug-28 20:09N 43°53' E 008°01'0 0.0
2014-Aug-28 18:30N 43°53' E 008°01'0 0.0
2014-Aug-28 16:09N 43°53' E 008°01'0 0.0
2014-Aug-28 15:24N 43°53' E 008°01'0 0.0
2014-Aug-28 14:33N 43°53' E 008°01'0 0.0
2014-Aug-28 09:15N 43°53' E 008°01'0 0.0
2014-Aug-28 08:33N 43°53' E 008°01'  
2014-Aug-25 12:30N 43°53' E 008°01'  
Track history (hours):
 
Tides and Currents Weather Stations Pressure Air Temp Water Temp Dewpoint Dewpoint Depression Visibility Wind Speed Wind Dir Waves Ship Positions

Samadhi

Last reported at 2014-Aug-31 10:17 UTC. Time now 2014-Sep-01 18:50 UTC.
Position N 37°26' W 000°45'.

Length 61 m; draft 3.3 m.

Type: Pleasure craft. MMSI: 319420000.

Date/timePositionNaut miles runAvg speedWind from/ knotsBaromVisibWave heightAir tempDewpointWater temp
2014-Aug-31 10:17N 37°26' W 000°45'1113.5
2014-Aug-31 09:30N 37°33' W 000°35'1313.3
2014-Aug-31 08:33N 37°44' W 000°25'14212.9
2014-Aug-30 21:32N 39°32' E 001°31'1313.1
2014-Aug-30 20:33N 39°41' E 001°44'1313.0
2014-Aug-30 19:33N 39°50' E 001°56'1312.7
2014-Aug-30 18:33N 39°58' E 002°09'1312.6
2014-Aug-30 17:33N 40°06' E 002°21'1312.9
2014-Aug-30 16:33N 40°15' E 002°33'3013.1
2014-Aug-30 14:14N 40°36' E 003°02'1313.6
2014-Aug-30 13:19N 40°43' E 003°16'911.2
2014-Aug-30 12:32N 40°49' E 003°24'1613.2
2014-Aug-30 11:19N 40°60' E 003°40'1412.7
2014-Aug-30 10:12N 41°09' E 003°54'912.6
2014-Aug-30 09:27N 41°16' E 004°03'1312.9
2014-Aug-30 08:28N 41°24' E 004°16'1312.0
2014-Aug-30 07:22N 41°33' E 004°29'1112.7
2014-Aug-30 06:29N 41°40' E 004°40'1412.9
2014-Aug-30 05:25N 41°50' E 004°54'4212.8
2014-Aug-30 02:07N 42°18' E 005°36'1112.7
2014-Aug-30 01:14N 42°25' E 005°48'912.5
2014-Aug-30 00:33N 42°31' E 005°57'1413.1
2014-Aug-29 23:27N 42°40' E 006°11'1213.6
2014-Aug-29 22:33N 42°48' E 006°24'1413.5
2014-Aug-29 21:31N 42°58' E 006°38'2713.6
2014-Aug-29 19:33N 43°16' E 007°05'1313.4
2014-Aug-29 18:33N 43°25' E 007°19'2713.3
2014-Aug-29 16:33N 43°42' E 007°47'1513.2
2014-Aug-29 15:24N 43°52' E 008°02'1 0.0
2014-Aug-28 20:09N 43°53' E 008°01'0 0.0
2014-Aug-28 18:30N 43°53' E 008°01'0 0.0
2014-Aug-28 16:09N 43°53' E 008°01'0 0.0
2014-Aug-28 15:24N 43°53' E 008°01'0 0.0
2014-Aug-28 14:33N 43°53' E 008°01'0 0.0
2014-Aug-28 09:15N 43°53' E 008°01'0 0.0
2014-Aug-28 08:33N 43°53' E 008°01'  
2014-Aug-25 12:30N 43°53' E 008°01'  

Dump ship's entire track history